createdAt,value
2023-02-12T00:01:10.229Z,53.42
2023-02-12T00:03:39.959Z,52.85
2023-02-12T00:06:09.180Z,59.05
2023-02-12T00:08:37.402Z,54.80
2023-02-12T00:11:10.543Z,58.13
2023-02-12T00:13:38.485Z,55.05
2023-02-12T00:16:08.691Z,57.05
2023-02-12T00:18:37.031Z,55.83
2023-02-12T00:21:08.785Z,56.65
2023-02-12T00:23:37.211Z,50.97
2023-02-12T00:26:07.453Z,46.28
2023-02-12T00:28:35.487Z,51.38
2023-02-12T00:31:07.851Z,54.00
2023-02-12T00:33:35.866Z,54.83
2023-02-12T00:36:06.561Z,53.92
2023-02-12T00:38:34.980Z,50.78
2023-02-12T00:41:03.160Z,52.92
2023-02-12T00:43:31.137Z,56.45
2023-02-12T00:45:59.536Z,55.67
2023-02-12T00:48:27.665Z,49.03
2023-02-12T00:50:55.955Z,43.28
2023-02-12T00:53:25.254Z,48.50
2023-02-12T00:55:53.923Z,47.42
2023-02-12T00:58:21.978Z,48.65
2023-02-12T01:00:50.198Z,48.58
2023-02-12T01:03:18.328Z,47.20
2023-02-12T01:05:46.778Z,46.90
2023-02-12T01:08:16.447Z,47.97
2023-02-12T01:10:46.016Z,46.70
2023-02-12T01:13:14.563Z,41.03
2023-02-12T01:15:43.588Z,40.33
2023-02-12T01:18:12.736Z,47.50
2023-02-12T01:20:41.125Z,43.55
2023-02-12T01:23:09.443Z,44.55
2023-02-12T01:25:39.279Z,44.10
2023-02-12T01:28:08.609Z,44.95
2023-02-12T01:30:36.797Z,46.17
2023-02-12T01:33:04.755Z,45.10
2023-02-12T01:35:32.927Z,43.13
2023-02-12T01:38:01.036Z,43.92
2023-02-12T01:40:29.267Z,43.53
2023-02-12T01:42:57.158Z,44.88
2023-02-12T01:45:47.768Z,41.75
2023-02-12T01:48:17.799Z,42.95
2023-02-12T01:50:47.328Z,43.40
2023-02-12T01:53:20.352Z,44.08
2023-02-12T01:55:54.518Z,41.20
2023-02-12T01:58:22.701Z,42.40
2023-02-12T02:03:42.432Z,41.78
2023-02-12T02:06:13.338Z,44.65
2023-02-12T02:08:42.078Z,45.40
2023-02-12T02:11:24.599Z,43.65
2023-02-12T02:14:10.111Z,41.42
2023-02-12T02:16:38.591Z,43.17
2023-02-12T02:19:13.383Z,42.63
2023-02-12T02:21:58.826Z,44.65
2023-02-12T02:24:54.780Z,44.63
2023-02-12T02:27:28.919Z,44.88
2023-02-12T02:30:24.885Z,42.25
2023-02-12T02:32:58.650Z,41.38
2023-02-12T02:35:30.747Z,45.05
2023-02-12T02:40:34.821Z,43.67
2023-02-12T02:43:07.186Z,47.22
2023-02-12T02:45:40.336Z,45.63
2023-02-12T02:48:13.859Z,46.95
2023-02-12T02:50:44.868Z,46.97
2023-02-12T02:53:15.625Z,48.40
2023-02-12T02:55:46.466Z,46.58
2023-02-12T02:58:18.604Z,46.90
2023-02-12T03:00:50.135Z,47.38
2023-02-12T03:03:22.684Z,48.17
2023-02-12T03:05:53.238Z,48.55
2023-02-12T03:08:25.199Z,47.00
2023-02-12T03:10:55.941Z,45.42
2023-02-12T03:13:27.881Z,46.10
2023-02-12T03:16:01.270Z,36.65
2023-02-12T03:18:31.951Z,44.10
2023-02-12T03:21:02.049Z,47.97
2023-02-12T03:23:35.881Z,46.72
2023-02-12T03:26:07.367Z,45.75
2023-02-12T03:28:37.338Z,48.53
2023-02-12T03:31:13.205Z,45.72
2023-02-12T03:33:47.810Z,47.42
2023-02-12T03:36:24.060Z,47.90
2023-02-12T03:38:55.530Z,45.88
2023-02-12T03:41:28.576Z,35.90
2023-02-12T03:44:00.506Z,43.35
2023-02-12T03:46:34.300Z,45.47
2023-02-12T03:49:05.048Z,47.28
2023-02-12T03:51:36.612Z,46.15
2023-02-12T03:54:06.132Z,48.13
2023-02-12T03:56:38.716Z,46.67
2023-02-12T03:59:07.184Z,48.15
2023-02-12T04:01:37.078Z,46.45
2023-02-12T04:04:07.417Z,46.92
2023-02-12T04:06:35.666Z,46.72
2023-02-12T04:09:06.880Z,47.80
2023-02-12T04:11:39.946Z,48.95
2023-02-12T04:14:15.387Z,48.35
2023-02-12T04:16:50.193Z,50.95
2023-02-12T04:19:25.708Z,48.85
2023-02-12T04:22:02.119Z,52.58
2023-02-12T04:24:37.562Z,47.92
2023-02-12T04:27:10.587Z,51.40
2023-02-12T04:29:44.341Z,47.95
2023-02-12T04:32:16.992Z,51.80
2023-02-12T04:34:50.367Z,54.42
2023-02-12T04:37:21.489Z,49.85
2023-02-12T04:39:50.448Z,51.00
2023-02-12T04:42:18.665Z,50.13
2023-02-12T04:44:47.160Z,48.15
2023-02-12T04:47:17.255Z,46.95
2023-02-12T04:49:45.445Z,46.88
2023-02-12T04:52:13.471Z,47.70
2023-02-12T04:54:41.634Z,46.13
2023-02-12T04:57:10.439Z,47.92
2023-02-12T04:59:38.698Z,48.17
2023-02-12T05:02:06.610Z,45.95
2023-02-12T05:04:36.140Z,45.70
2023-02-12T05:07:04.149Z,47.72
2023-02-12T05:09:32.371Z,45.97
2023-02-12T05:12:00.267Z,42.75
2023-02-12T05:14:28.435Z,44.72
2023-02-12T05:16:56.549Z,40.38
2023-02-12T05:19:24.725Z,40.65
2023-02-12T05:21:54.115Z,40.83
2023-02-12T05:24:22.440Z,40.33
2023-02-12T05:26:50.727Z,40.05
2023-02-12T05:29:19.341Z,34.58
2023-02-12T05:31:47.581Z,36.03
2023-02-12T05:34:16.072Z,33.22
2023-02-12T05:36:43.993Z,36.20
2023-02-12T05:39:13.509Z,36.45
2023-02-12T05:41:41.432Z,37.00
2023-02-12T05:44:11.906Z,29.73
2023-02-12T05:46:40.387Z,34.50
2023-02-12T05:49:08.627Z,37.28
2023-02-12T05:51:36.903Z,39.40
2023-02-12T05:54:06.800Z,42.80
2023-02-12T05:56:37.358Z,37.22
2023-02-12T05:59:07.624Z,33.13
2023-02-12T06:01:37.735Z,33.33
2023-02-12T06:04:07.947Z,20.80
2023-02-12T06:06:36.738Z,22.02
2023-02-12T06:09:05.318Z,20.17
2023-02-12T06:11:33.215Z,16.33
2023-02-12T06:14:04.877Z,17.30
2023-02-12T06:16:33.455Z,15.45
2023-02-12T06:19:04.157Z,16.55
2023-02-12T06:21:32.770Z,15.85
2023-02-12T06:24:01.297Z,16.48
2023-02-12T06:26:29.591Z,16.92
2023-02-12T06:28:57.812Z,13.73
2023-02-12T06:31:29.250Z,11.57
2023-02-12T06:33:59.583Z,12.75
2023-02-12T06:36:27.544Z,11.95
2023-02-12T06:38:56.042Z,10.75
2023-02-12T06:41:24.361Z,10.73
2023-02-12T06:43:52.528Z,10.82
2023-02-12T06:46:21.204Z,10.15
2023-02-12T06:48:54.251Z,10.20
2023-02-12T06:51:23.502Z,9.73
2023-02-12T06:53:52.496Z,10.35
2023-02-12T06:56:20.997Z,10.57
2023-02-12T06:58:53.904Z,11.13
2023-02-12T07:01:23.646Z,11.18
2023-02-12T07:03:55.269Z,11.85
2023-02-12T07:06:24.041Z,13.50
2023-02-12T07:08:52.433Z,13.20
2023-02-12T07:11:24.404Z,13.73
2023-02-12T07:13:52.827Z,14.70
2023-02-12T07:16:21.025Z,14.23
2023-02-12T07:18:49.291Z,15.73
2023-02-12T07:21:19.503Z,15.10
2023-02-12T07:23:50.794Z,15.05
2023-02-12T07:26:19.564Z,14.68
2023-02-12T07:28:47.904Z,13.23
2023-02-12T07:31:17.504Z,12.40
2023-02-12T07:33:46.366Z,11.88
2023-02-12T07:36:15.940Z,11.95
2023-02-12T07:38:45.721Z,12.23
2023-02-12T07:41:15.278Z,15.00
2023-02-12T07:43:44.858Z,14.18
2023-02-12T07:46:14.449Z,15.30
2023-02-12T07:48:42.756Z,14.00
2023-02-12T07:51:12.192Z,14.95
2023-02-12T07:53:41.059Z,13.40
2023-02-12T07:56:12.653Z,10.93
2023-02-12T07:58:41.902Z,9.60
2023-02-12T08:01:19.042Z,9.52
2023-02-12T08:03:48.143Z,9.20
2023-02-12T08:06:17.534Z,8.95
2023-02-12T08:08:45.939Z,9.77
2023-02-12T08:11:16.597Z,10.77
2023-02-12T08:13:45.376Z,9.55
2023-02-12T08:16:15.120Z,10.30
2023-02-12T08:18:43.587Z,8.63
2023-02-12T08:21:13.476Z,8.93
2023-02-12T08:23:42.027Z,9.02
2023-02-12T08:26:12.415Z,8.10
2023-02-12T08:28:43.698Z,7.43
2023-02-12T08:31:14.817Z,8.70
2023-02-12T08:33:43.347Z,11.00
2023-02-12T08:36:13.259Z,12.05
2023-02-12T08:38:41.523Z,10.70
2023-02-12T08:41:11.347Z,13.60
2023-02-12T08:43:41.603Z,13.40
2023-02-12T08:46:10.961Z,10.85
2023-02-12T08:48:39.587Z,11.70
2023-02-12T08:51:09.332Z,18.05
2023-02-12T08:53:38.283Z,14.80
2023-02-12T08:56:07.002Z,12.95
2023-02-12T08:58:35.447Z,10.70
2023-02-12T09:01:05.682Z,8.65
2023-02-12T09:03:33.878Z,11.88
2023-02-12T09:06:03.795Z,15.38
2023-02-12T09:08:32.334Z,11.88
2023-02-12T09:11:00.404Z,11.77
2023-02-12T09:13:28.556Z,12.73
2023-02-12T09:15:56.743Z,10.85
2023-02-12T09:18:26.449Z,9.77
2023-02-12T09:20:54.464Z,8.07
2023-02-12T09:23:22.786Z,10.43
2023-02-12T09:25:50.729Z,8.80
2023-02-12T09:28:19.016Z,9.73
2023-02-12T09:30:47.046Z,14.77
2023-02-12T09:33:15.300Z,15.65
2023-02-12T09:35:44.568Z,21.58
2023-02-12T09:38:12.825Z,10.27
2023-02-12T09:40:45.970Z,7.90
2023-02-12T09:43:19.854Z,11.75
2023-02-12T09:45:52.488Z,9.18
2023-02-12T09:48:44.136Z,12.93
2023-02-12T09:51:14.113Z,8.57
2023-02-12T09:53:46.762Z,9.02
2023-02-12T09:56:16.411Z,7.50
2023-02-12T09:58:47.609Z,13.25
2023-02-12T10:01:17.634Z,7.97
2023-02-12T10:03:46.201Z,10.98
2023-02-12T10:06:18.987Z,7.53
2023-02-12T10:08:59.074Z,10.05
2023-02-12T10:11:38.880Z,7.88
2023-02-12T10:14:21.025Z,19.85
2023-02-12T10:16:56.919Z,28.90
2023-02-12T10:19:37.236Z,11.65
2023-02-12T10:22:14.622Z,7.57
2023-02-12T10:24:52.423Z,8.77
2023-02-12T10:27:27.151Z,10.45
2023-02-12T10:29:58.215Z,6.13
2023-02-12T10:32:29.585Z,7.22
2023-02-12T10:34:58.727Z,6.80
2023-02-12T10:37:33.379Z,7.22
2023-02-12T10:40:04.619Z,7.32
2023-02-12T10:42:38.995Z,6.72
2023-02-12T10:45:12.782Z,7.90
2023-02-12T10:47:40.902Z,8.27
2023-02-12T10:50:18.978Z,8.32
2023-02-12T10:52:49.807Z,6.82
2023-02-12T10:55:27.238Z,6.68
2023-02-12T10:57:56.161Z,6.45
2023-02-12T11:00:27.865Z,7.60
2023-02-12T11:03:06.079Z,6.83
2023-02-12T11:05:36.665Z,7.28
2023-02-12T11:08:06.846Z,6.55
2023-02-12T11:10:39.637Z,7.38
2023-02-12T11:13:08.567Z,6.80
2023-02-12T11:15:39.904Z,7.05
2023-02-12T11:18:09.630Z,6.97
2023-02-12T11:20:40.994Z,7.10
2023-02-12T11:23:25.608Z,7.47
2023-02-12T11:25:59.168Z,9.02
2023-02-12T11:28:27.534Z,7.75
2023-02-12T11:30:58.172Z,7.50
2023-02-12T11:33:32.431Z,7.65
2023-02-12T11:36:06.850Z,7.25
2023-02-12T11:38:39.082Z,6.57
2023-02-12T11:43:39.536Z,7.30
2023-02-12T11:46:09.207Z,7.65
2023-02-12T11:48:39.838Z,6.68
2023-02-12T11:51:10.608Z,8.35
2023-02-12T11:53:43.055Z,7.50
2023-02-12T11:56:13.091Z,10.50
2023-02-12T11:58:41.231Z,9.40
2023-02-12T12:01:13.878Z,10.27
2023-02-12T12:03:46.936Z,9.20
2023-02-12T12:06:25.386Z,9.52
2023-02-12T12:08:59.411Z,8.18
2023-02-12T12:11:30.886Z,9.27
2023-02-12T12:14:02.917Z,8.43
2023-02-12T12:19:50.865Z,7.13
2023-02-12T12:22:28.547Z,8.50
2023-02-12T12:25:01.671Z,8.80
2023-02-12T12:27:54.357Z,8.85
2023-02-12T12:30:37.429Z,9.75
2023-02-12T12:33:07.999Z,10.07
2023-02-12T12:35:44.666Z,8.73
2023-02-12T12:38:21.839Z,9.57
2023-02-12T12:41:01.697Z,8.02
2023-02-12T12:43:42.506Z,8.48
2023-02-12T12:46:26.535Z,7.82
2023-02-12T12:49:16.876Z,8.15
2023-02-12T12:52:13.614Z,8.20
2023-02-12T12:54:56.925Z,9.20
2023-02-12T12:57:38.621Z,8.90
2023-02-12T13:00:19.743Z,9.50
2023-02-12T13:03:23.033Z,10.65
2023-02-12T13:06:12.430Z,10.80
2023-02-12T13:08:58.963Z,9.98
2023-02-12T13:11:36.553Z,8.73
2023-02-12T13:14:15.280Z,8.38
2023-02-12T13:16:47.374Z,8.57
2023-02-12T13:19:19.860Z,10.10
2023-02-12T13:21:52.499Z,7.25
2023-02-12T13:24:28.585Z,7.60
2023-02-12T13:26:59.147Z,7.60
2023-02-12T13:29:32.525Z,8.55
2023-02-12T13:32:06.082Z,9.43
2023-02-12T13:34:36.080Z,7.85
2023-02-12T13:37:05.846Z,9.23
2023-02-12T13:39:37.457Z,9.45
2023-02-12T13:42:18.104Z,7.80
2023-02-12T13:44:52.116Z,8.30
2023-02-12T13:47:30.126Z,8.15
2023-02-12T13:50:03.971Z,8.30
2023-02-12T13:52:37.005Z,8.38
2023-02-12T13:55:22.873Z,9.93
2023-02-12T13:58:24.608Z,9.07
2023-02-12T14:01:02.913Z,7.70
2023-02-12T14:03:32.548Z,8.75
2023-02-12T14:06:11.747Z,9.63
2023-02-12T14:08:42.277Z,7.60
2023-02-12T14:11:12.078Z,7.65
2023-02-12T14:13:50.075Z,8.82
2023-02-12T14:16:40.666Z,9.50
2023-02-12T14:19:46.615Z,9.15
2023-02-12T14:22:15.270Z,8.18
2023-02-12T14:24:51.984Z,8.88
2023-02-12T14:27:35.888Z,8.88
2023-02-12T14:30:26.913Z,9.50
2023-02-12T14:33:11.175Z,10.68
2023-02-12T14:35:40.445Z,17.92
2023-02-12T14:38:47.509Z,10.35
2023-02-12T14:41:34.139Z,22.50
2023-02-12T14:44:44.799Z,14.68
2023-02-12T14:47:17.300Z,20.83
2023-02-12T14:49:48.410Z,11.45
2023-02-12T14:52:18.355Z,10.57
2023-02-12T14:54:48.946Z,10.88
2023-02-12T14:57:25.086Z,11.27
2023-02-12T14:59:54.197Z,10.10
2023-02-12T15:02:26.757Z,9.70
2023-02-12T15:07:30.689Z,9.80
2023-02-12T15:10:07.344Z,8.00
2023-02-12T15:12:38.695Z,8.15
2023-02-12T15:15:13.081Z,8.98
2023-02-12T15:17:43.252Z,9.77
2023-02-12T15:20:23.720Z,8.55
2023-02-12T15:22:52.046Z,10.07
2023-02-12T15:25:24.933Z,12.63
2023-02-12T15:27:56.518Z,9.85
2023-02-12T15:30:26.973Z,10.27
2023-02-12T15:32:56.865Z,10.02
2023-02-12T15:35:27.900Z,8.85
2023-02-12T15:37:56.854Z,9.23
2023-02-12T15:40:25.046Z,9.57
2023-02-12T15:42:55.999Z,10.20
2023-02-12T15:45:26.271Z,10.68
2023-02-12T15:48:03.978Z,12.60
2023-02-12T15:50:34.351Z,12.05
2023-02-12T15:53:02.890Z,13.52
2023-02-12T15:55:36.754Z,14.05
2023-02-12T15:58:05.161Z,14.18
2023-02-12T16:00:38.570Z,14.07
2023-02-12T16:03:06.902Z,15.02
2023-02-12T16:05:36.234Z,14.40
2023-02-12T16:08:04.580Z,14.85
2023-02-12T16:10:32.778Z,14.65
2023-02-12T16:13:01.132Z,13.48
2023-02-12T16:15:31.272Z,12.95
2023-02-12T16:18:04.044Z,11.63
2023-02-12T16:20:33.149Z,11.93
2023-02-12T16:23:07.312Z,12.20
2023-02-12T16:25:35.446Z,12.82
2023-02-12T16:28:05.851Z,13.00
2023-02-12T16:30:38.754Z,14.68
2023-02-12T16:33:34.891Z,14.10
2023-02-12T16:36:04.276Z,12.73
2023-02-12T16:38:43.566Z,15.10
2023-02-12T16:41:24.541Z,13.43
2023-02-12T16:44:22.452Z,13.98
2023-02-12T16:46:52.599Z,14.60
2023-02-12T16:49:24.228Z,15.30
2023-02-12T16:51:53.704Z,14.03
2023-02-12T16:54:30.608Z,14.85
2023-02-12T16:56:59.194Z,15.18
2023-02-12T16:59:27.685Z,15.23
2023-02-12T17:02:01.269Z,16.70
2023-02-12T17:04:31.460Z,17.48
2023-02-12T17:06:59.718Z,16.25
2023-02-12T17:09:29.642Z,14.65
2023-02-12T17:11:57.969Z,17.98
2023-02-12T17:14:26.225Z,12.75
2023-02-12T17:16:54.116Z,17.40
2023-02-12T17:19:22.871Z,17.83
2023-02-12T17:21:52.355Z,13.27
2023-02-12T17:24:22.921Z,13.95
2023-02-12T17:26:51.292Z,16.42
2023-02-12T17:29:20.311Z,15.55
2023-02-12T17:31:49.111Z,15.93
2023-02-12T17:34:17.762Z,19.25
2023-02-12T17:36:45.657Z,18.90
2023-02-12T17:39:16.213Z,22.90
2023-02-12T17:41:45.107Z,23.25
2023-02-12T17:44:14.929Z,21.63
2023-02-12T17:46:43.493Z,19.70
2023-02-12T17:49:11.822Z,19.73
2023-02-12T17:51:39.898Z,20.10
2023-02-12T17:54:08.082Z,20.17
2023-02-12T17:56:37.470Z,23.05
2023-02-12T17:59:05.649Z,25.58
2023-02-12T18:01:34.545Z,26.90
2023-02-12T18:04:02.976Z,29.67
2023-02-12T18:06:31.833Z,27.98
2023-02-12T18:09:01.644Z,26.70
2023-02-12T18:11:30.293Z,27.23
2023-02-12T18:14:00.541Z,27.10
2023-02-12T18:16:30.231Z,27.45
2023-02-12T18:18:59.806Z,27.45
2023-02-12T18:21:28.115Z,32.10
2023-02-12T18:23:56.368Z,29.77
2023-02-12T18:26:24.479Z,29.77
2023-02-12T18:28:53.776Z,28.23
2023-02-12T18:31:23.140Z,29.20
2023-02-12T18:33:51.654Z,30.45
2023-02-12T18:36:21.627Z,29.17
2023-02-12T18:38:51.174Z,29.20
2023-02-12T18:41:21.001Z,27.20
2023-02-12T18:43:49.555Z,30.38
2023-02-12T18:46:19.410Z,30.45
2023-02-12T18:48:49.851Z,32.42
2023-02-12T18:51:21.010Z,30.45
2023-02-12T18:53:49.806Z,29.40
2023-02-12T18:56:17.814Z,25.77
2023-02-12T18:58:45.975Z,27.33
2023-02-12T19:01:14.871Z,21.75
2023-02-12T19:03:43.441Z,24.05
2023-02-12T19:06:13.094Z,23.42
2023-02-12T19:08:41.550Z,21.02
2023-02-12T19:11:10.518Z,20.63
2023-02-12T19:13:39.185Z,21.55
2023-02-12T19:16:08.332Z,21.15
2023-02-12T19:18:36.658Z,20.25
2023-02-12T19:21:07.052Z,21.67
2023-02-12T19:23:36.901Z,20.05
2023-02-12T19:26:05.620Z,19.25
2023-02-12T19:28:35.322Z,19.77
2023-02-12T19:31:11.438Z,18.05
2023-02-12T19:33:40.967Z,17.98
2023-02-12T19:36:11.322Z,18.00
2023-02-12T19:38:41.018Z,18.23
2023-02-12T19:41:10.972Z,17.08
2023-02-12T19:43:39.427Z,19.55
2023-02-12T19:46:09.379Z,19.60
2023-02-12T19:48:38.190Z,21.02
2023-02-12T19:51:07.003Z,20.73
2023-02-12T19:53:35.185Z,20.30
2023-02-12T19:56:05.363Z,21.73
2023-02-12T19:58:33.634Z,19.77
2023-02-12T20:01:01.727Z,19.23
2023-02-12T20:03:29.915Z,20.95
2023-02-12T20:06:01.616Z,22.25
2023-02-12T20:08:29.910Z,26.55
2023-02-12T20:10:58.142Z,22.55
2023-02-12T20:13:27.898Z,27.38
2023-02-12T20:15:55.874Z,24.58
2023-02-12T20:18:24.329Z,21.60
2023-02-12T20:20:52.293Z,19.88
2023-02-12T20:23:20.690Z,19.05
2023-02-12T20:25:48.794Z,21.80
2023-02-12T20:28:17.077Z,25.63
2023-02-12T20:30:46.864Z,23.00
2023-02-12T20:33:15.283Z,26.90
2023-02-12T20:35:43.185Z,23.13
2023-02-12T20:38:11.877Z,25.48
2023-02-12T20:40:39.872Z,22.50
2023-02-12T20:43:08.059Z,26.15
2023-02-12T20:45:36.200Z,20.77
2023-02-12T20:48:05.788Z,19.60
2023-02-12T20:50:34.510Z,21.50
2023-02-12T20:53:03.171Z,19.80
2023-02-12T20:55:31.067Z,19.38
2023-02-12T20:57:59.294Z,20.50
2023-02-12T21:00:27.407Z,23.85
2023-02-12T21:02:55.888Z,23.92
2023-02-12T21:05:25.210Z,23.40
2023-02-12T21:07:53.861Z,22.08
2023-02-12T21:10:23.203Z,21.00
2023-02-12T21:12:51.445Z,18.50
2023-02-12T21:15:19.374Z,22.02
2023-02-12T21:17:47.566Z,20.67
2023-02-12T21:20:15.481Z,23.90
2023-02-12T21:22:45.591Z,24.88
2023-02-12T21:25:13.485Z,26.15
2023-02-12T21:27:42.025Z,24.25
2023-02-12T21:30:10.774Z,25.83
2023-02-12T21:32:38.974Z,22.23
2023-02-12T21:35:07.540Z,20.75
2023-02-12T21:37:35.866Z,24.23
2023-02-12T21:40:06.010Z,25.10
2023-02-12T21:42:34.175Z,22.52
2023-02-12T21:45:02.119Z,21.02
2023-02-12T21:47:31.160Z,21.35
2023-02-12T21:49:59.070Z,20.33
2023-02-12T21:52:27.272Z,18.27
2023-02-12T21:54:57.040Z,17.55
2023-02-12T21:57:26.623Z,19.15
2023-02-12T21:59:54.570Z,21.40
2023-02-12T22:02:23.459Z,22.25
2023-02-12T22:04:54.893Z,22.63
2023-02-12T22:07:23.047Z,24.65
2023-02-12T22:09:50.933Z,20.52
2023-02-12T22:12:19.423Z,19.10
2023-02-12T22:14:48.738Z,20.48
2023-02-12T22:17:16.881Z,22.75
2023-02-12T22:19:44.935Z,25.25
2023-02-12T22:22:13.137Z,30.95
2023-02-12T22:24:41.182Z,31.15
2023-02-12T22:27:09.402Z,26.20
2023-02-12T22:29:37.567Z,24.73
2023-02-12T22:32:07.129Z,24.25
2023-02-12T22:34:35.164Z,21.90
2023-02-12T22:37:03.362Z,21.08
2023-02-12T22:39:31.381Z,18.48
2023-02-12T22:41:59.559Z,19.73
2023-02-12T22:44:27.627Z,17.10
2023-02-12T22:46:55.820Z,19.50
2023-02-12T22:49:25.343Z,19.48
2023-02-12T22:51:53.609Z,19.25
2023-02-12T22:54:21.549Z,17.17
2023-02-12T22:56:52.046Z,18.55
2023-02-12T22:59:20.081Z,18.20
2023-02-12T23:01:48.308Z,19.38
2023-02-12T23:04:16.832Z,20.02
2023-02-12T23:06:46.789Z,17.92
2023-02-12T23:09:16.753Z,18.13
2023-02-12T23:11:44.984Z,26.02
2023-02-12T23:14:13.050Z,26.60
2023-02-12T23:16:41.267Z,26.00
2023-02-12T23:19:11.002Z,24.13
2023-02-12T23:21:39.209Z,20.85
2023-02-12T23:24:10.899Z,20.80
2023-02-12T23:26:39.076Z,22.10
2023-02-12T23:29:07.007Z,22.88
2023-02-12T23:31:35.301Z,22.30
2023-02-12T23:34:03.343Z,22.20
2023-02-12T23:36:31.529Z,21.50
2023-02-12T23:38:59.992Z,21.48
2023-02-12T23:41:29.495Z,18.88
2023-02-12T23:43:57.594Z,21.88
2023-02-12T23:46:25.881Z,22.35
2023-02-12T23:48:53.844Z,19.80
2023-02-12T23:51:22.066Z,22.73
2023-02-12T23:53:49.997Z,30.15
2023-02-12T23:56:18.182Z,30.33
2023-02-12T23:58:47.601Z,29.40
